Time;durP1;ratioP1;P1;durP2;ratioP2;P2;SDS_P1;SDS_P2;PMS_P1;PMS_P2;Temp;Humidity;BMP_temperature;BMP_pressure;BME280_temperature;BME280_humidity;BME280_pressure;Samples;Min_cycle;Max_cycle;Signal;HPM_P1;HPM_P2
2023/03/10 00:01:33;;;;;;;4.50;4.05;;;3.80;99.90;;;;;;5000962;28;20022;-43
2023/03/10 00:04:00;;;;;;;4.40;3.72;;;3.80;99.90;;;;;;5000371;28;20603;-43
2023/03/10 00:06:31;;;;;;;4.75;4.35;;;3.80;99.90;;;;;;5000263;28;20022;-42
2023/03/10 00:08:58;;;;;;;4.40;4.00;;;3.80;99.90;;;;;;4999716;28;20088;-43
2023/03/10 00:11:23;;;;;;;4.72;4.10;;;3.80;99.90;;;;;;4999686;28;20047;-42
2023/03/10 00:13:49;;;;;;;4.20;3.80;;;3.80;99.90;;;;;;5000076;28;20038;-43
2023/03/10 00:16:20;;;;;;;4.13;3.72;;;3.90;99.90;;;;;;4999213;28;20026;-42
2023/03/10 00:18:47;;;;;;;3.90;3.60;;;3.90;99.90;;;;;;5000213;28;20042;-41
2023/03/10 00:21:15;;;;;;;4.20;3.58;;;3.90;99.90;;;;;;4999430;28;20026;-44
2023/03/10 00:23:41;;;;;;;4.10;3.70;;;3.90;99.90;;;;;;4999282;28;20022;-43
2023/03/10 00:26:08;;;;;;;4.35;3.95;;;4.00;99.90;;;;;;4999174;28;20083;-42
2023/03/10 00:28:33;;;;;;;3.45;3.15;;;3.90;99.90;;;;;;5000387;28;20069;-43
2023/03/10 00:31:02;;;;;;;4.18;3.78;;;4.00;99.90;;;;;;4998676;28;20112;-43
2023/03/10 00:33:32;;;;;;;4.10;3.70;;;4.00;99.90;;;;;;4999289;28;20033;-43
2023/03/10 00:36:17;;;;;;;4.25;3.85;;;4.00;99.90;;;;;;4999781;28;20030;-43
2023/03/10 00:38:44;;;;;;;4.93;4.43;;;4.00;99.90;;;;;;5000252;28;20158;-43
2023/03/10 00:41:13;;;;;;;3.78;3.47;;;4.10;99.90;;;;;;4998924;28;20477;-43
2023/03/10 00:43:38;;;;;;;3.97;3.60;;;4.10;99.90;;;;;;4999436;28;20033;-43
2023/03/10 00:46:04;;;;;;;3.80;3.50;;;4.10;99.90;;;;;;5000149;28;20030;-42
2023/03/10 00:48:30;;;;;;;3.85;3.45;;;4.10;99.90;;;;;;5000130;28;20029;-43
2023/03/10 00:50:56;;;;;;;4.05;3.65;;;4.10;99.90;;;;;;5002237;28;20022;-42
2023/03/10 00:53:22;;;;;;;4.68;3.85;;;4.10;99.90;;;;;;5004099;28;20021;-43
2023/03/10 00:56:04;;;;;;;4.45;4.05;;;4.10;99.90;;;;;;5003492;28;20037;-43
2023/03/10 00:58:31;;;;;;;4.72;4.18;;;4.10;99.90;;;;;;4992356;28;20034;-43
2023/03/10 01:00:57;;;;;;;5.20;4.70;;;4.10;99.90;;;;;;5001550;28;20038;-44
2023/03/10 01:03:24;;;;;;;5.07;4.57;;;4.10;99.90;;;;;;5002213;28;20072;-43
2023/03/10 01:05:50;;;;;;;4.82;4.25;;;4.10;99.90;;;;;;5002055;28;20033;-42
2023/03/10 01:08:16;;;;;;;5.07;4.57;;;4.10;99.90;;;;;;5002812;28;20092;-43
2023/03/10 01:10:45;;;;;;;5.18;4.25;;;4.10;99.90;;;;;;5003553;28;20033;-43
2023/03/10 01:13:12;;;;;;;4.68;4.15;;;4.10;99.90;;;;;;5001787;28;20033;-43
2023/03/10 01:15:38;;;;;;;4.05;3.70;;;4.10;99.90;;;;;;5004509;28;20036;-42
2023/03/10 01:18:04;;;;;;;4.60;4.20;;;4.10;99.90;;;;;;5003125;28;20042;-43
2023/03/10 01:20:31;;;;;;;4.43;4.03;;;4.10;99.90;;;;;;5003818;28;20880;-44
2023/03/10 01:22:58;;;;;;;4.13;3.72;;;4.10;99.90;;;;;;5003209;28;20569;-42
2023/03/10 01:25:23;;;;;;;4.18;3.78;;;4.10;99.90;;;;;;5002745;28;20021;-42
2023/03/10 01:27:49;;;;;;;4.00;3.70;;;4.20;99.90;;;;;;5002661;28;20600;-43
2023/03/10 01:30:15;;;;;;;3.95;3.60;;;4.20;99.90;;;;;;5002796;28;20740;-42
2023/03/10 01:32:40;;;;;;;4.53;4.10;;;4.20;99.90;;;;;;5002949;28;20048;-43
2023/03/10 01:35:07;;;;;;;3.60;3.30;;;4.20;99.90;;;;;;5002926;28;20772;-43
2023/03/10 01:37:33;;;;;;;3.75;3.40;;;4.30;99.90;;;;;;5003265;28;20182;-43
2023/03/10 01:39:59;;;;;;;3.92;3.60;;;4.30;99.90;;;;;;5002252;28;20058;-43
2023/03/10 01:42:25;;;;;;;6.75;3.92;;;4.30;99.90;;;;;;5002016;28;20454;-44
2023/03/10 01:45:09;;;;;;;4.20;3.85;;;4.30;99.90;;;;;;5002655;28;20614;-42
2023/03/10 01:47:35;;;;;;;4.20;3.80;;;4.40;99.90;;;;;;5002132;28;20326;-42
2023/03/10 01:50:03;;;;;;;3.85;3.53;;;4.40;99.90;;;;;;5002453;28;20029;-43
2023/03/10 01:52:31;;;;;;;4.80;4.40;;;4.40;99.90;;;;;;5002481;28;20523;-43
2023/03/10 01:55:18;;;;;;;4.55;4.15;;;4.40;99.90;;;;;;5001496;28;20104;-43
2023/03/10 01:57:51;;;;;;;4.10;3.70;;;4.40;99.90;;;;;;5002180;28;20049;-42
2023/03/10 02:00:19;;;;;;;4.57;3.97;;;4.40;99.90;;;;;;5002413;28;20018;-42
2023/03/10 02:03:42;;;;;;;4.47;3.90;;;4.50;99.90;;;;;;5002045;28;20032;-43
2023/03/10 02:06:10;;;;;;;4.53;4.13;;;4.50;99.90;;;;;;4921497;29;20045;-43
2023/03/10 02:08:53;;;;;;;5.13;4.63;;;4.50;99.90;;;;;;4985250;28;20509;-43
2023/03/10 02:11:19;;;;;;;4.85;4.35;;;4.50;99.90;;;;;;5001556;28;20084;-43
2023/03/10 02:13:45;;;;;;;5.32;4.82;;;4.50;99.90;;;;;;5002644;28;20029;-42
2023/03/10 02:16:12;;;;;;;5.75;5.03;;;4.40;99.90;;;;;;5001852;28;20029;-42
2023/03/10 02:18:41;;;;;;;5.70;5.13;;;4.40;99.90;;;;;;5002253;28;20386;-42
2023/03/10 02:21:25;;;;;;;5.10;4.60;;;4.40;99.90;;;;;;5001612;28;20037;-42
2023/03/10 02:24:05;;;;;;;5.15;4.65;;;4.40;99.90;;;;;;5001286;28;20022;-43
2023/03/10 02:26:51;;;;;;;5.55;4.95;;;4.40;99.90;;;;;;4992703;28;20036;-42
2023/03/10 02:29:45;;;;;;;5.10;4.55;;;4.40;99.90;;;;;;5000814;28;20026;-41
2023/03/10 02:32:13;;;;;;;5.20;4.70;;;4.40;99.90;;;;;;5001211;28;20030;-43
2023/03/10 02:34:39;;;;;;;5.40;4.90;;;4.40;99.90;;;;;;5002294;28;20481;-44
2023/03/10 02:37:04;;;;;;;6.15;5.55;;;4.40;99.90;;;;;;5000969;28;20037;-43
2023/03/10 02:39:33;;;;;;;5.53;4.97;;;4.40;99.90;;;;;;5001307;28;20030;-43
2023/03/10 02:42:05;;;;;;;5.43;4.93;;;4.40;99.90;;;;;;5001088;28;20548;-43
2023/03/10 02:44:32;;;;;;;4.70;4.30;;;4.40;99.90;;;;;;5000515;28;20030;-43
2023/03/10 02:46:58;;;;;;;5.57;5.00;;;4.40;99.90;;;;;;5001026;28;20497;-43
2023/03/10 02:49:27;;;;;;;5.88;5.28;;;4.40;99.90;;;;;;5001759;28;20113;-43
2023/03/10 02:51:53;;;;;;;5.90;5.30;;;4.40;99.90;;;;;;5001221;28;20871;-42
2023/03/10 02:54:19;;;;;;;5.47;4.95;;;4.40;99.90;;;;;;5001173;28;20042;-43
2023/03/10 02:56:45;;;;;;;5.70;5.00;;;4.40;99.90;;;;;;5000309;28;20096;-43
2023/03/10 02:59:15;;;;;;;5.53;5.03;;;4.40;99.90;;;;;;5001668;28;20036;-43
2023/03/10 03:01:43;;;;;;;6.30;5.65;;;4.40;99.90;;;;;;5001458;28;20189;-42
2023/03/10 03:04:08;;;;;;;8.93;6.47;;;4.40;99.90;;;;;;5000594;28;20033;-42
2023/03/10 03:06:34;;;;;;;7.50;6.70;;;4.40;99.90;;;;;;5001849;28;20034;-42
2023/03/10 03:09:00;;;;;;;8.63;7.72;;;4.40;99.90;;;;;;5001324;28;20026;-42
2023/03/10 03:11:25;;;;;;;8.38;7.43;;;4.40;99.90;;;;;;5001259;28;20044;-43
2023/03/10 03:13:54;;;;;;;8.80;7.35;;;4.40;99.90;;;;;;5001498;28;20030;-43
2023/03/10 03:16:20;;;;;;;8.70;7.57;;;4.40;99.90;;;;;;5000405;28;20026;-43
2023/03/10 03:18:45;;;;;;;8.60;7.68;;;4.40;99.90;;;;;;4999859;28;20049;-43
2023/03/10 03:21:15;;;;;;;8.40;7.13;;;4.40;99.90;;;;;;4999076;28;20452;-44
2023/03/10 03:23:40;;;;;;;6.45;5.80;;;4.40;99.90;;;;;;5000040;28;20156;-43
2023/03/10 03:26:14;;;;;;;6.70;6.00;;;4.50;99.90;;;;;;4999715;28;20811;-43
2023/03/10 03:28:40;;;;;;;11.25;8.45;;;4.50;99.90;;;;;;5000864;28;20104;-43
2023/03/10 03:31:05;;;;;;;11.77;9.35;;;4.50;99.90;;;;;;5000211;28;20022;-43
2023/03/10 03:33:31;;;;;;;11.55;8.85;;;4.50;99.90;;;;;;4999977;28;20108;-43
2023/03/10 03:35:56;;;;;;;11.75;9.35;;;4.50;99.90;;;;;;5000785;28;20026;-42
2023/03/10 03:38:22;;;;;;;8.70;7.75;;;4.40;99.90;;;;;;5000675;28;20108;-42
2023/03/10 03:40:47;;;;;;;9.27;7.50;;;4.40;99.90;;;;;;4999351;28;20029;-42
2023/03/10 03:43:13;;;;;;;7.53;6.72;;;4.40;99.90;;;;;;4999915;28;20029;-43
2023/03/10 03:45:39;;;;;;;7.93;7.13;;;4.40;99.90;;;;;;5000062;28;20029;-43
2023/03/10 03:48:04;;;;;;;7.70;6.50;;;4.40;99.90;;;;;;4999920;28;20382;-43
2023/03/10 03:50:33;;;;;;;6.88;6.18;;;4.40;99.90;;;;;;5000544;28;20033;-43
2023/03/10 03:52:58;;;;;;;6.32;5.72;;;4.40;99.90;;;;;;5000127;28;20026;-44
2023/03/10 03:55:28;;;;;;;6.97;5.95;;;4.40;99.90;;;;;;4999723;28;20048;-43
2023/03/10 03:57:53;;;;;;;7.80;6.38;;;4.50;99.90;;;;;;4999491;28;20053;-43
2023/03/10 04:00:26;;;;;;;7.03;5.97;;;4.50;99.90;;;;;;4998843;28;20038;-43
2023/03/10 04:02:52;;;;;;;7.53;6.07;;;4.40;99.90;;;;;;5000258;28;20436;-43
2023/03/10 04:05:21;;;;;;;7.25;6.22;;;4.40;99.90;;;;;;5000614;28;20022;-42
2023/03/10 04:07:48;;;;;;;7.70;6.63;;;4.40;99.90;;;;;;5000361;28;20125;-43
2023/03/10 04:10:17;;;;;;;7.15;5.97;;;4.40;99.90;;;;;;4999644;28;20034;-43
2023/03/10 04:12:46;;;;;;;7.20;6.00;;;4.40;99.90;;;;;;5000752;28;20034;-42
2023/03/10 04:15:12;;;;;;;7.90;5.85;;;4.40;99.90;;;;;;4999007;28;20037;-42
2023/03/10 04:17:38;;;;;;;6.47;5.50;;;4.30;99.90;;;;;;4999738;28;20034;-43
2023/03/10 04:20:05;;;;;;;6.15;5.30;;;4.40;99.90;;;;;;4999615;28;20084;-44
2023/03/10 04:22:31;;;;;;;7.63;6.10;;;4.40;99.90;;;;;;4999330;28;20493;-43
2023/03/10 04:24:56;;;;;;;6.82;5.85;;;4.40;99.90;;;;;;4999151;28;20030;-43
2023/03/10 04:27:22;;;;;;;7.20;5.97;;;4.40;99.90;;;;;;4998905;28;20067;-43
2023/03/10 04:29:48;;;;;;;8.02;6.20;;;4.40;99.90;;;;;;4998410;28;20112;-44
2023/03/10 04:32:16;;;;;;;6.72;5.60;;;4.40;99.90;;;;;;4998082;28;20669;-43
2023/03/10 04:34:42;;;;;;;6.88;5.22;;;4.40;99.90;;;;;;4998795;28;20033;-43
2023/03/10 04:37:08;;;;;;;7.00;5.60;;;4.40;99.90;;;;;;4998377;28;20195;-44
2023/03/10 04:39:36;;;;;;;6.60;4.93;;;4.40;99.90;;;;;;4981209;28;20022;-43
2023/03/10 04:42:01;;;;;;;6.28;4.88;;;4.40;99.90;;;;;;4998876;28;20112;-43
2023/03/10 04:44:27;;;;;;;8.40;5.45;;;4.40;99.90;;;;;;4998578;28;20028;-43
2023/03/10 04:46:52;;;;;;;6.15;5.10;;;4.40;99.90;;;;;;4999255;28;20116;-42
2023/03/10 04:49:24;;;;;;;5.60;4.80;;;4.40;99.90;;;;;;4998554;28;20018;-43
2023/03/10 04:51:49;;;;;;;7.60;6.07;;;4.40;99.90;;;;;;4999920;28;20038;-42
2023/03/10 04:54:15;;;;;;;8.02;5.53;;;4.40;99.90;;;;;;4998375;28;20688;-43
2023/03/10 04:56:41;;;;;;;6.75;5.10;;;4.30;99.90;;;;;;4998920;28;20485;-43
2023/03/10 04:59:06;;;;;;;6.50;4.93;;;4.30;99.90;;;;;;4998264;28;20079;-42
2023/03/10 05:01:33;;;;;;;8.45;5.68;;;4.30;99.90;;;;;;4999332;28;20133;-43
2023/03/10 05:04:03;;;;;;;7.13;5.45;;;4.30;99.90;;;;;;4998697;28;20030;-43
2023/03/10 05:06:29;;;;;;;6.25;4.60;;;4.30;99.90;;;;;;4999852;28;20026;-43
2023/03/10 05:08:55;;;;;;;6.40;4.88;;;4.30;99.90;;;;;;4999137;28;20030;-44
2023/03/10 05:11:21;;;;;;;6.20;4.60;;;4.30;99.90;;;;;;4997322;28;20033;-44
2023/03/10 05:13:46;;;;;;;6.22;4.65;;;4.30;99.90;;;;;;4999498;28;20485;-43
2023/03/10 05:16:14;;;;;;;6.47;3.88;;;4.30;99.90;;;;;;4998030;28;20034;-42
2023/03/10 05:18:39;;;;;;;5.20;4.30;;;4.30;99.90;;;;;;4998694;28;20046;-43
2023/03/10 05:21:05;;;;;;;5.82;4.38;;;4.30;99.90;;;;;;4998795;28;20032;-44
2023/03/10 05:23:30;;;;;;;5.13;3.95;;;4.30;99.90;;;;;;4999161;28;20718;-43
2023/03/10 05:25:56;;;;;;;4.88;3.65;;;4.40;99.90;;;;;;4998465;28;20026;-43
2023/03/10 05:28:22;;;;;;;4.68;3.47;;;4.40;99.90;;;;;;4998709;28;20038;-43
2023/03/10 05:30:48;;;;;;;5.47;4.05;;;4.30;99.90;;;;;;4999106;28;20041;-43
2023/03/10 05:33:14;;;;;;;6.43;4.03;;;4.40;99.90;;;;;;4997949;28;20034;-43
2023/03/10 05:35:40;;;;;;;5.00;3.85;;;4.40;99.90;;;;;;4998064;28;20049;-44
2023/03/10 05:38:08;;;;;;;5.57;3.47;;;4.30;99.90;;;;;;5000215;28;20832;-42
2023/03/10 05:40:35;;;;;;;4.68;3.45;;;4.40;99.90;;;;;;5000916;28;20022;-44
2023/03/10 05:43:01;;;;;;;4.65;3.60;;;4.30;99.90;;;;;;5002284;28;20124;-44
2023/03/10 05:45:27;;;;;;;5.32;3.78;;;4.40;99.90;;;;;;5001135;28;20028;-43
2023/03/10 05:47:52;;;;;;;5.13;3.35;;;4.30;99.90;;;;;;5002543;28;20034;-43
2023/03/10 05:50:21;;;;;;;3.88;3.10;;;4.30;99.90;;;;;;5002109;28;20080;-44
2023/03/10 05:52:46;;;;;;;3.97;2.70;;;4.30;99.90;;;;;;5002191;28;20029;-44
2023/03/10 05:55:15;;;;;;;3.50;2.58;;;4.30;99.90;;;;;;5002071;28;20049;-43
2023/03/10 05:57:40;;;;;;;4.35;2.80;;;4.30;99.90;;;;;;5003136;28;20823;-44
2023/03/10 06:00:10;;;;;;;3.28;2.50;;;4.30;99.90;;;;;;5001668;28;20037;-43
2023/03/10 06:02:37;;;;;;;2.78;2.40;;;4.30;99.90;;;;;;5002925;28;20041;-44
2023/03/10 06:05:07;;;;;;;3.38;2.67;;;4.20;99.90;;;;;;5002675;28;20048;-43
2023/03/10 06:07:33;;;;;;;2.53;2.28;;;4.20;99.90;;;;;;5002455;28;20034;-43
2023/03/10 06:09:59;;;;;;;4.25;2.90;;;4.20;99.90;;;;;;5002813;28;20037;-42
2023/03/10 06:12:25;;;;;;;3.15;2.50;;;4.20;99.90;;;;;;5002145;28;20029;-43
2023/03/10 06:14:50;;;;;;;2.95;2.53;;;4.10;99.90;;;;;;5002348;28;20028;-43
2023/03/10 06:17:16;;;;;;;3.92;3.30;;;4.10;99.90;;;;;;5001865;28;20809;-44
2023/03/10 06:19:42;;;;;;;3.80;3.20;;;4.10;99.90;;;;;;5001603;28;20478;-44
2023/03/10 06:22:08;;;;;;;4.03;3.10;;;4.10;99.90;;;;;;5001410;28;20029;-42
2023/03/10 06:24:33;;;;;;;3.83;3.10;;;4.00;99.90;;;;;;5002325;28;20408;-42
2023/03/10 06:26:59;;;;;;;4.10;3.47;;;4.10;99.90;;;;;;5002120;28;20799;-42
2023/03/10 06:29:24;;;;;;;4.22;3.60;;;4.00;99.90;;;;;;5001217;28;20025;-43
2023/03/10 06:31:50;;;;;;;3.83;3.42;;;4.00;99.90;;;;;;5002000;28;20104;-42
2023/03/10 06:34:16;;;;;;;3.97;3.05;;;4.00;99.90;;;;;;5001507;28;20021;-43
2023/03/10 06:36:42;;;;;;;3.05;2.55;;;4.00;99.90;;;;;;5001439;28;20018;-42
2023/03/10 06:39:08;;;;;;;4.38;3.38;;;4.00;99.90;;;;;;5001519;28;20033;-43
2023/03/10 06:41:39;;;;;;;3.28;2.97;;;4.00;99.90;;;;;;5001709;28;20458;-47
2023/03/10 06:44:05;;;;;;;3.55;3.08;;;4.10;99.90;;;;;;4999887;28;20820;-43
2023/03/10 06:46:30;;;;;;;5.50;4.13;;;4.10;99.90;;;;;;5000658;28;20037;-43
2023/03/10 06:49:02;;;;;;;4.53;3.80;;;4.10;99.90;;;;;;4999677;28;20029;-44
2023/03/10 06:51:27;;;;;;;4.35;3.70;;;4.10;99.90;;;;;;5000839;28;20026;-44
2023/03/10 06:53:54;;;;;;;5.25;4.00;;;4.10;99.90;;;;;;5001319;28;20025;-43
2023/03/10 06:56:21;;;;;;;6.32;4.90;;;4.10;99.90;;;;;;4999671;28;20058;-43
2023/03/10 06:58:47;;;;;;;7.13;5.45;;;4.10;99.90;;;;;;5001546;28;20029;-44
2023/03/10 07:01:32;;;;;;;6.13;4.85;;;4.20;99.90;;;;;;5001191;28;20022;-43
2023/03/10 07:03:59;;;;;;;8.85;6.00;;;4.10;99.90;;;;;;5001096;28;20022;-43
2023/03/10 07:06:25;;;;;;;7.32;5.53;;;4.20;99.90;;;;;;5001738;28;20306;-43
2023/03/10 07:08:53;;;;;;;6.43;4.85;;;4.10;99.90;;;;;;5000528;28;20793;-42
2023/03/10 07:11:28;;;;;;;7.78;5.00;;;4.20;99.90;;;;;;5000639;28;20018;-43
2023/03/10 07:13:53;;;;;;;6.85;5.05;;;4.20;99.90;;;;;;5000043;28;20108;-44
2023/03/10 07:16:19;;;;;;;5.72;4.50;;;4.20;99.90;;;;;;5000894;28;20041;-43
2023/03/10 07:18:45;;;;;;;5.57;3.97;;;4.10;99.90;;;;;;5000237;28;20088;-44
2023/03/10 07:21:15;;;;;;;5.68;4.05;;;4.10;99.90;;;;;;5001149;28;20029;-44
2023/03/10 07:23:40;;;;;;;4.25;3.85;;;4.10;99.90;;;;;;5001342;28;20041;-43
2023/03/10 07:26:07;;;;;;;4.22;3.83;;;4.10;99.90;;;;;;5000146;28;20029;-44
2023/03/10 07:28:34;;;;;;;3.65;3.20;;;4.10;99.90;;;;;;5000999;28;20203;-43
2023/03/10 07:31:05;;;;;;;4.55;3.75;;;4.10;99.90;;;;;;5000247;28;20113;-42
2023/03/10 07:33:31;;;;;;;4.35;3.50;;;4.20;99.90;;;;;;5000920;28;20026;-43
2023/03/10 07:35:57;;;;;;;4.57;3.38;;;4.20;99.90;;;;;;5000720;28;20831;-43
2023/03/10 07:38:23;;;;;;;4.47;3.90;;;4.20;99.90;;;;;;4999469;28;20177;-43
2023/03/10 07:40:51;;;;;;;6.75;4.65;;;4.20;99.90;;;;;;5000330;28;20025;-44
2023/03/10 07:43:17;;;;;;;5.45;4.82;;;4.30;99.90;;;;;;4981027;28;20105;-43
2023/03/10 07:45:45;;;;;;;4.88;4.15;;;4.30;99.90;;;;;;4994211;28;20527;-42
2023/03/10 07:48:10;;;;;;;4.65;3.90;;;4.30;99.90;;;;;;5000014;28;20066;-43
2023/03/10 07:50:36;;;;;;;4.10;3.67;;;4.30;99.90;;;;;;4999863;28;20587;-43
2023/03/10 07:53:02;;;;;;;5.30;3.72;;;4.30;99.90;;;;;;4999365;28;20029;-44
2023/03/10 07:55:27;;;;;;;4.72;3.40;;;4.40;99.90;;;;;;4999819;28;20891;-44
2023/03/10 07:57:55;;;;;;;4.53;4.00;;;4.40;99.90;;;;;;4999659;28;20050;-43
2023/03/10 08:00:21;;;;;;;3.88;3.20;;;4.40;99.90;;;;;;4998145;28;20025;-43
2023/03/10 08:02:46;;;;;;;5.07;4.03;;;4.40;99.90;;;;;;5000684;28;20033;-44
2023/03/10 08:05:15;;;;;;;4.35;3.55;;;4.40;99.90;;;;;;4999386;28;20580;-43
2023/03/10 08:07:42;;;;;;;4.75;3.95;;;4.40;99.90;;;;;;4999410;28;20036;-43
2023/03/10 08:10:08;;;;;;;6.80;4.93;;;4.40;99.90;;;;;;4999497;28;20053;-42
2023/03/10 08:12:34;;;;;;;5.78;4.78;;;4.40;99.90;;;;;;4999938;28;20691;-44
2023/03/10 08:14:59;;;;;;;4.95;4.25;;;4.40;99.90;;;;;;4999377;28;20038;-43
2023/03/10 08:17:29;;;;;;;5.05;3.97;;;4.40;99.90;;;;;;4999356;28;20668;-43
2023/03/10 08:19:57;;;;;;;4.10;3.65;;;4.40;99.90;;;;;;5001420;28;20026;-43
2023/03/10 08:22:22;;;;;;;4.20;3.63;;;4.40;99.90;;;;;;4998226;28;20465;-43
2023/03/10 08:24:48;;;;;;;4.30;3.70;;;4.40;99.90;;;;;;4999896;28;20037;-44
2023/03/10 08:27:13;;;;;;;4.43;3.97;;;4.50;99.90;;;;;;4999208;28;20022;-43
2023/03/10 08:29:39;;;;;;;5.28;4.10;;;4.50;99.90;;;;;;4999721;28;20037;-43
2023/03/10 08:32:04;;;;;;;4.97;4.15;;;4.50;99.90;;;;;;4999334;28;20018;-43
2023/03/10 08:34:34;;;;;;;5.18;4.00;;;4.60;99.90;;;;;;4999966;28;20639;-44
2023/03/10 08:37:00;;;;;;;5.32;4.22;;;4.60;99.90;;;;;;4999141;28;20077;-43
2023/03/10 08:39:30;;;;;;;5.45;4.20;;;4.60;99.90;;;;;;4999685;28;20065;-43
2023/03/10 08:41:55;;;;;;;5.07;3.97;;;4.70;99.90;;;;;;4999344;28;20044;-43
2023/03/10 08:44:21;;;;;;;4.82;3.83;;;4.80;99.90;;;;;;4999304;28;20541;-42
2023/03/10 08:46:50;;;;;;;5.38;3.72;;;4.80;99.90;;;;;;4999948;28;20087;-43
2023/03/10 08:49:18;;;;;;;5.15;3.95;;;4.90;99.90;;;;;;4999142;28;20100;-42
2023/03/10 08:51:47;;;;;;;4.53;3.53;;;5.00;99.90;;;;;;4999285;28;20124;-43
2023/03/10 08:54:15;;;;;;;4.50;3.58;;;5.00;99.90;;;;;;4999126;28;20026;-43
2023/03/10 08:56:41;;;;;;;4.20;3.47;;;5.10;99.90;;;;;;4998844;28;20057;-42
2023/03/10 08:59:06;;;;;;;4.10;3.22;;;5.10;99.90;;;;;;4998866;28;20027;-42
2023/03/10 09:01:35;;;;;;;4.15;3.50;;;5.10;99.90;;;;;;4999748;28;20054;-43
2023/03/10 09:04:05;;;;;;;5.60;3.88;;;5.00;99.90;;;;;;4997590;28;20604;-43
2023/03/10 09:06:31;;;;;;;6.15;3.45;;;5.00;99.90;;;;;;4998746;28;20727;-42
2023/03/10 09:08:57;;;;;;;4.75;4.00;;;5.00;99.90;;;;;;4998701;28;20041;-33
2023/03/10 09:11:28;;;;;;;4.10;3.20;;;5.00;99.90;;;;;;5001147;28;20576;-33
2023/03/10 09:13:54;;;;;;;5.30;4.28;;;5.00;99.90;;;;;;5003071;28;20026;-32
2023/03/10 09:16:20;;;;;;;3.83;3.17;;;5.00;99.90;;;;;;5002547;28;20121;-33
2023/03/10 09:18:46;;;;;;;5.07;3.72;;;5.10;99.90;;;;;;5001915;28;20115;-32
2023/03/10 09:21:14;;;;;;;4.13;3.42;;;5.10;99.90;;;;;;5002905;28;20084;-43
2023/03/10 09:23:42;;;;;;;4.15;3.22;;;5.10;99.90;;;;;;5002594;28;20420;-43
2023/03/10 09:26:08;;;;;;;3.78;3.38;;;5.10;99.90;;;;;;5002605;28;20112;-43
2023/03/10 09:28:37;;;;;;;4.90;3.83;;;5.10;99.90;;;;;;5002760;28;20028;-41
2023/03/10 09:31:04;;;;;;;4.80;3.95;;;5.10;99.90;;;;;;5001323;28;20032;-42
2023/03/10 09:33:31;;;;;;;4.32;3.70;;;5.10;99.90;;;;;;5003196;28;20030;-44
2023/03/10 09:35:57;;;;;;;4.20;3.80;;;5.10;99.90;;;;;;5003180;28;20034;-44
2023/03/10 09:38:24;;;;;;;5.70;4.13;;;5.10;99.90;;;;;;5002030;28;20046;-44
2023/03/10 09:41:02;;;;;;;5.68;4.25;;;5.10;99.90;;;;;;5003343;28;20032;-43
2023/03/10 09:43:35;;;;;;;5.82;4.10;;;5.10;99.90;;;;;;5003821;28;20037;-44
2023/03/10 09:46:06;;;;;;;5.07;3.85;;;5.20;99.90;;;;;;5002214;28;20176;-44
2023/03/10 09:48:53;;;;;;;5.35;3.72;;;5.20;99.90;;;;;;5003074;28;20017;-42
2023/03/10 09:51:24;;;;;;;4.60;3.70;;;5.20;99.90;;;;;;4992301;28;20076;-43
2023/03/10 09:54:23;;;;;;;5.20;3.65;;;5.20;99.90;;;;;;5001033;28;20050;-44
2023/03/10 09:56:48;;;;;;;4.25;3.70;;;5.30;99.90;;;;;;4994797;28;20061;-42
2023/03/10 09:59:35;;;;;;;5.18;3.28;;;5.30;99.90;;;;;;5001385;28;20084;-44
2023/03/10 10:02:12;;;;;;;3.63;3.15;;;5.30;99.90;;;;;;5002269;28;20832;-43
2023/03/10 10:04:40;;;;;;;4.00;3.38;;;5.30;99.90;;;;;;5002055;28;20036;-43
2023/03/10 10:07:19;;;;;;;4.32;3.58;;;5.30;99.90;;;;;;5002482;28;20041;-44
2023/03/10 10:09:52;;;;;;;5.75;4.10;;;5.30;99.90;;;;;;5002848;28;20809;-42
2023/03/10 10:12:22;;;;;;;5.63;4.53;;;5.30;99.90;;;;;;5000633;28;20274;-43
2023/03/10 10:15:15;;;;;;;6.38;4.38;;;5.30;99.90;;;;;;5000835;28;20033;-44
2023/03/10 10:17:59;;;;;;;5.63;4.43;;;5.30;99.90;;;;;;5001078;28;20125;-43
2023/03/10 10:20:30;;;;;;;4.10;3.58;;;5.30;99.90;;;;;;5000277;28;20053;-44
2023/03/10 10:22:56;;;;;;;5.70;4.20;;;5.30;99.90;;;;;;5000971;28;20123;-43
2023/03/10 10:25:24;;;;;;;7.95;5.03;;;5.40;99.90;;;;;;5001213;28;20260;-43
2023/03/10 10:27:54;;;;;;;6.10;5.13;;;5.40;99.90;;;;;;5000672;28;20836;-42
2023/03/10 10:30:36;;;;;;;5.80;5.15;;;5.40;99.90;;;;;;5002381;28;20034;-43
2023/03/10 10:33:05;;;;;;;7.82;6.38;;;5.50;99.90;;;;;;5002308;28;20025;-44
2023/03/10 10:36:01;;;;;;;5.55;4.97;;;5.50;99.90;;;;;;5000965;28;20030;-43
2023/03/10 10:38:29;;;;;;;5.07;4.55;;;5.50;99.90;;;;;;4981412;28;20081;-44
2023/03/10 10:41:08;;;;;;;5.60;4.38;;;5.60;99.90;;;;;;5000737;28;20029;-45
2023/03/10 10:43:42;;;;;;;4.10;3.70;;;5.60;99.90;;;;;;4984667;28;20129;-42
2023/03/10 10:46:09;;;;;;;3.60;2.90;;;5.60;99.90;;;;;;5001236;28;20022;-44
2023/03/10 10:48:44;;;;;;;3.35;2.72;;;5.70;99.90;;;;;;5002168;28;20072;-43
2023/03/10 10:51:37;;;;;;;3.20;2.88;;;5.70;99.90;;;;;;5001867;28;20026;-42
2023/03/10 10:54:27;;;;;;;3.63;2.72;;;5.70;99.90;;;;;;4997049;28;20073;-43
2023/03/10 10:56:55;;;;;;;2.65;2.45;;;5.80;99.90;;;;;;5001094;28;20068;-43
2023/03/10 10:59:32;;;;;;;3.83;2.67;;;5.80;99.90;;;;;;5001344;28;20084;-42
2023/03/10 11:02:03;;;;;;;3.95;3.42;;;5.80;99.90;;;;;;5001608;28;20560;-43
2023/03/10 11:04:44;;;;;;;4.32;3.47;;;5.90;99.90;;;;;;5002313;28;20640;-44
2023/03/10 11:07:16;;;;;;;3.22;2.80;;;5.90;99.90;;;;;;5001191;28;20036;-44
2023/03/10 11:09:42;;;;;;;4.10;3.40;;;5.90;99.90;;;;;;5000750;28;20361;-42
2023/03/10 11:12:33;;;;;;;3.50;2.83;;;5.80;99.90;;;;;;5000573;28;20481;-43
2023/03/10 11:15:24;;;;;;;3.28;2.97;;;5.80;99.90;;;;;;5000673;28;20076;-43
2023/03/10 11:18:00;;;;;;;2.97;2.67;;;5.70;99.90;;;;;;5000191;28;20498;-42
2023/03/10 11:20:38;;;;;;;3.97;2.88;;;5.70;99.90;;;;;;5000916;28;20108;-43
2023/03/10 11:23:11;;;;;;;5.70;2.67;;;5.70;99.90;;;;;;4999717;28;20655;-44
2023/03/10 11:26:29;;;;;;;3.85;3.15;;;5.60;99.90;;;;;;5000664;28;20553;-43
2023/03/10 11:29:20;;;;;;;4.35;3.20;;;5.60;99.90;;;;;;4920026;29;20036;-45
2023/03/10 11:32:21;;;;;;;4.82;3.38;;;5.50;99.90;;;;;;4980860;28;20118;-42
2023/03/10 11:35:20;;;;;;;4.15;3.75;;;5.50;99.90;;;;;;4902834;28;20041;-43
2023/03/10 11:37:58;;;;;;;3.58;3.25;;;5.50;99.90;;;;;;4980515;28;20053;-42
2023/03/10 11:40:43;;;;;;;4.22;3.30;;;5.40;99.90;;;;;;5000572;28;20049;-43
2023/03/10 11:43:23;;;;;;;3.50;3.17;;;5.40;99.90;;;;;;5000369;28;20022;-43
2023/03/10 11:45:52;;;;;;;3.92;3.47;;;5.30;99.90;;;;;;5000130;28;20088;-43
2023/03/10 11:49:02;;;;;;;3.80;3.38;;;5.20;99.90;;;;;;5000372;28;20695;-43
2023/03/10 11:52:06;;;;;;;3.88;3.33;;;5.20;99.90;;;;;;4988356;28;20034;-43
2023/03/10 11:55:02;;;;;;;4.72;3.97;;;5.10;99.90;;;;;;4949627;28;20042;-42
2023/03/10 11:57:35;;;;;;;4.00;3.35;;;5.10;99.90;;;;;;5000745;28;20042;-42
2023/03/10 12:00:06;;;;;;;4.82;3.00;;;5.10;99.90;;;;;;4999411;28;20033;-44
2023/03/10 12:02:43;;;;;;;3.05;2.78;;;5.10;99.90;;;;;;5000912;28;20026;-43
2023/03/10 12:05:20;;;;;;;2.47;2.22;;;5.10;99.90;;;;;;4999163;28;20034;-44
2023/03/10 12:07:48;;;;;;;2.60;2.30;;;5.10;99.90;;;;;;5001422;28;20034;-43
2023/03/10 12:10:20;;;;;;;2.10;1.95;;;5.10;99.90;;;;;;5000132;28;20048;-42
2023/03/10 12:12:52;;;;;;;2.90;2.35;;;5.10;99.90;;;;;;5000156;28;20022;-42
2023/03/10 12:15:25;;;;;;;2.65;2.30;;;5.10;99.90;;;;;;5000372;28;20029;-42
2023/03/10 12:17:54;;;;;;;;;;;5.10;99.90;;;;;;5000381;28;20384;-42
2023/03/10 12:20:20;;;;;;;2.42;2.22;;;5.10;99.90;;;;;;4999184;28;20052;-42
2023/03/10 12:22:50;;;;;;;4.05;2.63;;;5.00;99.90;;;;;;5000510;28;20034;-42
2023/03/10 12:25:32;;;;;;;3.00;2.70;;;5.00;99.90;;;;;;4999473;28;20083;-42
2023/03/10 12:28:15;;;;;;;2.70;2.50;;;5.10;99.90;;;;;;4980187;28;20213;-42
2023/03/10 12:30:49;;;;;;;3.10;2.80;;;5.10;99.90;;;;;;4997709;28;20037;-43
2023/03/10 12:33:33;;;;;;;3.90;3.03;;;5.20;99.90;;;;;;4999397;28;20029;-43
2023/03/10 12:36:23;;;;;;;4.03;3.20;;;5.20;99.90;;;;;;4998928;28;20029;-43
2023/03/10 12:39:17;;;;;;;4.65;2.88;;;5.20;99.90;;;;;;4999158;28;20843;-43
2023/03/10 12:42:03;;;;;;;3.60;2.92;;;5.10;99.90;;;;;;4997275;28;20852;-42
2023/03/10 12:44:50;;;;;;;3.20;2.50;;;5.10;99.90;;;;;;4999913;28;20049;-42
2023/03/10 12:47:33;;;;;;;2.97;2.58;;;5.10;99.90;;;;;;4989475;28;20610;-43
2023/03/10 12:50:35;;;;;;;3.03;2.60;;;5.10;99.90;;;;;;4999132;28;20033;-43
2023/03/10 12:53:32;;;;;;;4.30;3.17;;;5.10;99.90;;;;;;4999211;28;20041;-42
2023/03/10 12:56:50;;;;;;;4.13;3.15;;;5.10;99.90;;;;;;4997514;28;20057;-43
2023/03/10 12:59:33;;;;;;;3.33;2.72;;;5.10;99.90;;;;;;4955355;28;20046;-42
2023/03/10 13:01:59;;;;;;;;;;;5.10;99.90;;;;;;4999066;28;20088;-43
2023/03/10 13:04:26;;;;;;;3.35;3.05;;;5.20;99.90;;;;;;4999770;28;19910;-43
2023/03/10 13:06:55;;;;;;;3.35;2.80;;;5.10;99.90;;;;;;4998743;28;20470;-43
2023/03/10 13:09:35;;;;;;;3.60;3.05;;;5.10;99.90;;;;;;4998891;28;20034;-43
2023/03/10 13:12:27;;;;;;;5.28;3.83;;;5.10;99.90;;;;;;4997986;28;20049;-44
2023/03/10 13:14:56;;;;;;;4.50;3.78;;;5.10;99.90;;;;;;4998767;28;20033;-43
2023/03/10 13:17:28;;;;;;;4.10;3.70;;;5.00;99.90;;;;;;4998732;28;20053;-43